Air Resources Laboratory banner image
Air Resources Laboratory web site National Oceanic and Atmospheric Administration (NOAA)

in metar


KBMG 130753Z AUTO 21004KT 10SM FEW044 M07/M13 A2995 RMK AO2 SLP152 T10671133=
KEVV 130754Z AUTO 00000KT 10SM CLR M06/M11 A3004 RMK AO2 SLP177 T10561106=
KEYE 130753Z AUTO 00000KT 10SM BKN043 BKN050 M08/M14 A2993 RMK AO2 SLP146
 T10781139=
KFWA 130754Z 23006KT 10SM SCT055 BKN150 M11/M13 A2990 RMK AO2 SLP137 T11061133
 $=
KGEZ 130753Z AUTO 19005KT 10SM SCT080 M08/M13 A2996 RMK AO2 SLP155 T10781133=
KGSH 130753Z AUTO 23007KT 10SM CLR M09/M13 A2987 RMK AO2 SLP129 T10891133=
KGUS 130756Z AUTO 23005KT 10SM SCT090 M10/M13 A2990 RMK AO2 SLP141 T10961129 $=
KGYY 130755Z AUTO 18004KT 10SM OVC037 M05/M13 A2988 RMK AO2 T10501133=
KHLB 130755Z AUTO 00000KT 10SM OVC080 M09/M13 A2996 RMK A01=
KHNB 130756Z AUTO 19003KT 10SM CLR M07/M11 A3003 RMK AO2 SLP175 T10671111
 FZRANO=
KHUF 130753Z 21005KT 10SM OVC100 M05/M13 A2996 RMK AO2 SLP154 T10501128=
KIND 130754Z 18005KT 10SM FEW030 SCT045 BKN070 M08/M13 A2994 RMK AO2 SLP149
 T10831133=
KLAF 130754Z AUTO VRB03KT 10SM OVC047 M07/M12 A2993 RMK AO2 SLP142 T10721122=
KMIE 130753Z AUTO 22004KT 10SM CLR M08/M13 A2992 RMK AO2 SLP140 T10831133=
KSBN 130754Z AUTO 23008KT 10SM OVC090 M09/M12 A2987 RMK AO2 SLP129 T10891122=
KVPZ 130756Z AUTO 20005KT 10SM BKN041 OVC050 M07/M12 A2988 RMK AO2 SLP130
 T10671117 $=